createdAt,value
2023-01-19T00:00:30.306Z,22.13
2023-01-19T00:02:56.739Z,25.13
2023-01-19T00:05:23.091Z,16.80
2023-01-19T00:07:49.419Z,19.50
2023-01-19T00:10:16.209Z,19.53
2023-01-19T00:12:42.607Z,23.07
2023-01-19T00:15:09.493Z,25.50
2023-01-19T00:17:35.914Z,24.50
2023-01-19T00:20:03.763Z,24.23
2023-01-19T00:22:30.101Z,30.77
2023-01-19T00:24:56.485Z,20.20
2023-01-19T00:27:22.810Z,22.07
2023-01-19T00:29:49.342Z,19.57
2023-01-19T00:32:17.700Z,17.97
2023-01-19T00:34:49.320Z,23.50
2023-01-19T00:37:17.165Z,19.77
2023-01-19T00:39:43.781Z,27.13
2023-01-19T00:42:31.680Z,23.50
2023-01-19T00:44:58.193Z,19.30
2023-01-19T00:47:24.520Z,19.20
2023-01-19T00:49:50.844Z,25.07
2023-01-19T00:52:17.182Z,21.20
2023-01-19T00:54:43.550Z,18.97
2023-01-19T00:57:09.890Z,22.10
2023-01-19T00:59:36.226Z,20.03
2023-01-19T01:02:02.914Z,20.27
2023-01-19T01:04:29.888Z,24.50
2023-01-19T01:06:56.217Z,26.10
2023-01-19T01:09:23.453Z,19.27
2023-01-19T01:11:49.826Z,17.27
2023-01-19T01:14:18.004Z,20.77
2023-01-19T01:16:44.619Z,17.93
2023-01-19T01:19:11.135Z,17.87
2023-01-19T01:21:37.481Z,18.70
2023-01-19T01:24:04.231Z,19.80
2023-01-19T01:26:30.553Z,17.43
2023-01-19T01:28:56.900Z,18.50
2023-01-19T01:31:23.247Z,20.40
2023-01-19T01:33:49.767Z,17.97
2023-01-19T01:36:16.571Z,18.27
2023-01-19T01:38:43.140Z,19.23
2023-01-19T01:41:09.661Z,22.70
2023-01-19T01:44:06.177Z,21.00
2023-01-19T01:46:32.716Z,18.37
2023-01-19T01:49:16.051Z,24.43
2023-01-19T01:51:47.156Z,21.17
2023-01-19T01:54:27.901Z,21.10
2023-01-19T01:56:59.508Z,23.80
2023-01-19T01:59:38.970Z,19.47
2023-01-19T02:02:28.678Z,15.43
2023-01-19T02:05:04.193Z,19.33
2023-01-19T02:07:59.656Z,21.63
2023-01-19T02:10:44.964Z,19.60
2023-01-19T02:13:21.328Z,22.30
2023-01-19T02:15:50.107Z,17.67
2023-01-19T02:18:17.103Z,26.37
2023-01-19T02:20:52.136Z,22.97
2023-01-19T02:23:42.652Z,21.27
2023-01-19T02:26:13.047Z,20.10
2023-01-19T02:28:44.551Z,28.93
2023-01-19T02:31:11.418Z,19.67
2023-01-19T02:33:37.890Z,18.40
2023-01-19T02:36:05.935Z,21.73
2023-01-19T02:38:32.937Z,22.73
2023-01-19T02:41:02.966Z,25.53
2023-01-19T02:43:30.390Z,21.67
2023-01-19T02:45:57.278Z,24.77
2023-01-19T02:48:23.643Z,20.53
2023-01-19T02:50:53.595Z,23.80
2023-01-19T02:53:57.247Z,23.93
2023-01-19T02:56:54.886Z,20.90
2023-01-19T02:59:23.871Z,24.80
2023-01-19T03:02:08.861Z,24.23
2023-01-19T03:04:45.696Z,26.70
2023-01-19T03:07:24.629Z,25.77
2023-01-19T03:10:08.080Z,32.00
2023-01-19T03:12:50.463Z,22.07
2023-01-19T03:15:25.848Z,24.67
2023-01-19T03:17:53.819Z,21.53
2023-01-19T03:20:24.610Z,25.07
2023-01-19T03:23:00.497Z,25.27
2023-01-19T03:25:31.043Z,23.13
2023-01-19T03:27:57.915Z,22.60
2023-01-19T03:30:29.219Z,19.93
2023-01-19T03:33:05.034Z,24.43
2023-01-19T03:35:35.534Z,27.10
2023-01-19T03:38:06.063Z,24.67
2023-01-19T03:40:34.227Z,21.57
2023-01-19T03:43:02.518Z,20.13
2023-01-19T03:45:33.344Z,19.07
2023-01-19T03:47:59.838Z,26.97
2023-01-19T03:50:29.516Z,25.63
2023-01-19T03:53:15.959Z,21.77
2023-01-19T03:55:46.443Z,18.97
2023-01-19T03:58:13.200Z,22.20
2023-01-19T04:00:39.882Z,20.80
2023-01-19T04:03:11.772Z,21.70
2023-01-19T04:05:39.399Z,18.20
2023-01-19T04:08:08.556Z,22.47
2023-01-19T04:10:34.884Z,18.10
2023-01-19T04:13:02.213Z,24.47
2023-01-19T04:15:29.613Z,21.43
2023-01-19T04:18:01.748Z,22.00
2023-01-19T04:20:29.126Z,17.73
2023-01-19T04:22:59.518Z,20.90
2023-01-19T04:25:26.427Z,27.57
2023-01-19T04:27:53.292Z,21.33
2023-01-19T04:30:19.906Z,19.40
2023-01-19T04:32:46.770Z,23.90
2023-01-19T04:35:13.147Z,26.33
2023-01-19T04:37:40.017Z,20.93
2023-01-19T04:40:07.160Z,21.40
2023-01-19T04:42:33.472Z,23.80
2023-01-19T04:44:59.789Z,24.10
2023-01-19T04:47:26.167Z,20.20
2023-01-19T04:49:52.529Z,24.80
2023-01-19T04:52:19.379Z,23.50
2023-01-19T04:54:45.714Z,21.53
2023-01-19T04:57:12.070Z,21.50
2023-01-19T04:59:38.401Z,18.30
2023-01-19T05:02:04.771Z,24.37
2023-01-19T05:04:31.103Z,22.17
2023-01-19T05:06:58.218Z,22.27
2023-01-19T05:09:25.779Z,24.03
2023-01-19T05:11:52.137Z,26.30
2023-01-19T05:14:18.783Z,25.67
2023-01-19T05:16:45.153Z,25.60
2023-01-19T05:19:11.523Z,25.03
2023-01-19T05:21:37.939Z,20.77
2023-01-19T05:24:04.368Z,26.00
2023-01-19T05:26:30.713Z,32.13
2023-01-19T05:28:57.187Z,35.20
2023-01-19T05:31:23.616Z,24.50
2023-01-19T05:33:50.064Z,22.30
2023-01-19T05:36:16.435Z,31.87
2023-01-19T05:38:42.763Z,24.40
2023-01-19T05:41:09.100Z,27.37
2023-01-19T05:43:35.411Z,29.23
2023-01-19T05:46:04.586Z,20.90
2023-01-19T05:48:31.594Z,21.97
2023-01-19T05:50:59.488Z,24.87
2023-01-19T05:53:26.149Z,21.23
2023-01-19T05:55:52.509Z,26.67
2023-01-19T05:58:19.071Z,28.87
2023-01-19T06:00:45.464Z,23.40
2023-01-19T06:03:12.437Z,28.53
2023-01-19T06:05:39.395Z,21.33
2023-01-19T06:08:05.981Z,25.83
2023-01-19T06:10:32.339Z,21.57
2023-01-19T06:12:59.395Z,23.90
2023-01-19T06:15:25.965Z,27.67
2023-01-19T06:17:52.306Z,27.10
2023-01-19T06:20:18.656Z,23.60
2023-01-19T06:22:44.989Z,29.37
2023-01-19T06:25:11.826Z,24.73
2023-01-19T06:27:39.713Z,22.03
2023-01-19T06:30:06.758Z,26.30
2023-01-19T06:32:33.096Z,26.10
2023-01-19T06:34:59.425Z,21.77
2023-01-19T06:37:27.167Z,23.03
2023-01-19T06:39:53.724Z,18.47
2023-01-19T06:42:20.061Z,23.50
2023-01-19T06:44:47.894Z,28.13
2023-01-19T06:47:16.379Z,20.53
2023-01-19T06:49:43.427Z,26.13
2023-01-19T06:52:11.367Z,22.07
2023-01-19T06:54:37.850Z,20.30
2023-01-19T06:57:04.484Z,19.20
2023-01-19T06:59:31.660Z,23.43
2023-01-19T07:01:58.919Z,23.60
2023-01-19T07:04:26.963Z,20.07
2023-01-19T07:06:53.428Z,24.37
2023-01-19T07:09:20.445Z,20.60
2023-01-19T07:11:48.065Z,22.60
2023-01-19T07:14:15.395Z,27.50
2023-01-19T07:16:41.827Z,26.20
2023-01-19T07:19:10.550Z,20.93
2023-01-19T07:21:40.065Z,31.73
2023-01-19T07:24:06.605Z,24.43
2023-01-19T07:26:32.998Z,22.30
2023-01-19T07:28:59.364Z,20.63
2023-01-19T07:31:25.929Z,24.17
2023-01-19T07:33:52.391Z,24.87
2023-01-19T07:36:18.740Z,23.53
2023-01-19T07:38:45.091Z,25.73
2023-01-19T07:41:11.923Z,23.33
2023-01-19T07:43:38.283Z,23.97
2023-01-19T07:46:06.550Z,23.10
2023-01-19T07:48:33.159Z,22.30
2023-01-19T07:51:01.237Z,22.53
2023-01-19T07:53:27.621Z,21.57
2023-01-19T07:55:56.343Z,20.90
2023-01-19T07:58:24.476Z,24.27
2023-01-19T08:00:50.862Z,21.57
2023-01-19T08:03:17.744Z,22.87
2023-01-19T08:05:45.236Z,20.30
2023-01-19T08:08:12.413Z,27.97
2023-01-19T08:10:38.733Z,26.20
2023-01-19T08:13:05.111Z,20.93
2023-01-19T08:15:31.639Z,21.83
2023-01-19T08:18:00.470Z,21.50
2023-01-19T08:20:28.853Z,22.33
2023-01-19T08:22:59.994Z,21.13
2023-01-19T08:25:46.966Z,23.60
2023-01-19T08:28:15.617Z,16.70
2023-01-19T08:30:44.300Z,24.07
2023-01-19T08:33:13.962Z,23.57
2023-01-19T08:35:42.542Z,17.47
2023-01-19T08:38:10.307Z,22.30
2023-01-19T08:40:39.059Z,20.73
2023-01-19T08:43:08.923Z,18.63
2023-01-19T08:45:37.127Z,22.10
2023-01-19T08:48:06.120Z,20.33
2023-01-19T08:50:33.782Z,18.87
2023-01-19T08:53:02.352Z,18.90
2023-01-19T08:55:29.948Z,23.23
2023-01-19T08:57:57.867Z,20.47
2023-01-19T09:00:27.417Z,17.93
2023-01-19T09:02:54.692Z,19.50
2023-01-19T09:05:21.141Z,19.60
2023-01-19T09:07:48.327Z,16.43
2023-01-19T09:10:15.684Z,23.70
2023-01-19T09:12:43.396Z,15.47
2023-01-19T09:15:10.835Z,18.60
2023-01-19T09:17:37.370Z,17.60
2023-01-19T09:20:05.812Z,17.60
2023-01-19T09:22:33.334Z,14.60
2023-01-19T09:25:00.229Z,14.40
2023-01-19T09:27:26.553Z,16.73
2023-01-19T09:29:53.980Z,17.87
2023-01-19T09:32:21.247Z,18.17
2023-01-19T09:34:47.870Z,18.30
2023-01-19T09:37:16.013Z,15.37
2023-01-19T09:39:42.530Z,16.17
2023-01-19T09:42:23.316Z,17.13
2023-01-19T09:44:50.928Z,21.33
2023-01-19T09:47:23.392Z,19.00
2023-01-19T09:49:58.257Z,14.47
2023-01-19T09:52:24.740Z,16.53
2023-01-19T09:54:56.533Z,15.77
2023-01-19T09:57:25.009Z,15.10
2023-01-19T09:59:51.743Z,14.23
2023-01-19T10:02:20.761Z,16.93
2023-01-19T10:05:22.588Z,17.33
2023-01-19T10:07:58.600Z,16.63
2023-01-19T10:10:27.925Z,17.03
2023-01-19T10:13:21.821Z,15.27
2023-01-19T10:16:14.266Z,14.40
2023-01-19T10:18:51.404Z,21.40
2023-01-19T10:21:22.549Z,14.47
2023-01-19T10:24:14.278Z,20.17
2023-01-19T10:26:45.339Z,21.53
2023-01-19T10:29:21.012Z,19.27
2023-01-19T10:31:51.674Z,16.10
2023-01-19T10:34:23.491Z,9.40
2023-01-19T10:36:58.934Z,15.23
2023-01-19T10:39:25.463Z,14.50
2023-01-19T10:41:53.413Z,15.73
2023-01-19T10:44:28.889Z,14.47
2023-01-19T10:46:58.330Z,13.83
2023-01-19T10:49:27.650Z,12.83
2023-01-19T10:51:56.033Z,14.80
2023-01-19T10:54:23.944Z,17.30
2023-01-19T10:56:57.017Z,15.60
2023-01-19T10:59:50.920Z,13.20
2023-01-19T11:02:21.119Z,13.57
2023-01-19T11:04:51.113Z,16.07
2023-01-19T11:07:23.729Z,9.03
2023-01-19T11:10:22.354Z,13.47
2023-01-19T11:12:56.987Z,9.67
2023-01-19T11:15:48.707Z,10.47
2023-01-19T11:18:29.809Z,10.03
2023-01-19T11:20:59.369Z,13.23
2023-01-19T11:23:28.866Z,19.13
2023-01-19T11:26:00.354Z,13.60
2023-01-19T11:28:40.340Z,12.03
2023-01-19T11:31:15.976Z,10.77
2023-01-19T11:33:49.776Z,14.73
2023-01-19T11:36:21.019Z,11.07
2023-01-19T11:38:50.538Z,12.53
2023-01-19T11:41:31.681Z,15.83
2023-01-19T11:44:09.230Z,11.80
2023-01-19T11:46:39.597Z,19.83
2023-01-19T11:49:13.762Z,15.53
2023-01-19T11:52:15.150Z,10.60
2023-01-19T11:54:48.215Z,11.13
2023-01-19T11:57:17.072Z,11.63
2023-01-19T11:59:44.415Z,14.23
2023-01-19T12:02:28.507Z,11.60
2023-01-19T12:05:06.212Z,14.53
2023-01-19T12:07:35.176Z,10.20
2023-01-19T12:10:26.259Z,11.33
2023-01-19T12:12:53.395Z,10.30
2023-01-19T12:15:36.498Z,10.03
2023-01-19T12:18:05.387Z,10.47
2023-01-19T12:20:39.052Z,24.03
2023-01-19T12:23:11.168Z,10.73
2023-01-19T12:25:44.234Z,9.67
2023-01-19T12:28:14.596Z,9.50
2023-01-19T12:30:41.553Z,12.40
2023-01-19T12:33:40.451Z,8.40
2023-01-19T12:36:36.220Z,9.07
2023-01-19T12:39:02.473Z,11.00
2023-01-19T12:41:37.618Z,13.87
2023-01-19T12:44:16.291Z,11.17
2023-01-19T12:46:45.946Z,8.50
2023-01-19T12:49:21.032Z,8.30
2023-01-19T12:51:48.993Z,10.00
2023-01-19T12:54:31.436Z,10.63
2023-01-19T12:57:08.208Z,13.37
2023-01-19T12:59:37.224Z,13.70
2023-01-19T13:02:25.456Z,14.93
2023-01-19T13:05:32.504Z,12.13
2023-01-19T13:08:02.418Z,10.90
2023-01-19T13:10:53.643Z,9.73
2023-01-19T13:13:21.319Z,9.20
2023-01-19T13:15:47.818Z,11.73
2023-01-19T13:18:23.026Z,12.30
2023-01-19T13:21:00.212Z,9.70
2023-01-19T13:23:27.425Z,9.90
2023-01-19T13:26:01.396Z,16.80
2023-01-19T13:28:36.413Z,9.30
2023-01-19T13:31:03.711Z,13.60
2023-01-19T13:33:40.864Z,12.40
2023-01-19T13:36:20.809Z,12.00
2023-01-19T13:38:50.827Z,9.57
2023-01-19T13:41:22.345Z,8.10
2023-01-19T13:43:57.268Z,9.63
2023-01-19T13:46:26.279Z,17.40
2023-01-19T13:49:00.055Z,9.30
2023-01-19T13:51:26.843Z,12.20
2023-01-19T13:53:54.744Z,8.27
2023-01-19T13:56:23.269Z,9.40
2023-01-19T13:59:10.105Z,9.57
2023-01-19T14:01:38.389Z,8.50
2023-01-19T14:04:05.279Z,10.37
2023-01-19T14:06:47.647Z,11.23
2023-01-19T14:09:18.944Z,11.73
2023-01-19T14:11:47.485Z,9.97
2023-01-19T14:14:25.989Z,9.83
2023-01-19T14:16:52.740Z,8.13
2023-01-19T14:19:19.419Z,7.30
2023-01-19T14:21:46.000Z,8.97
2023-01-19T14:24:19.544Z,8.60
2023-01-19T14:26:48.320Z,10.00
2023-01-19T14:29:19.678Z,8.27
2023-01-19T14:31:52.767Z,12.47
2023-01-19T14:34:36.116Z,12.07
2023-01-19T14:37:04.886Z,8.93
2023-01-19T14:39:34.236Z,13.00
2023-01-19T14:42:04.040Z,12.13
2023-01-19T14:44:40.875Z,9.17
2023-01-19T14:47:25.158Z,9.93
2023-01-19T14:49:51.612Z,10.20
2023-01-19T14:52:54.031Z,10.53
2023-01-19T14:55:25.370Z,7.37
2023-01-19T14:57:51.696Z,8.63
2023-01-19T15:00:19.937Z,7.77
2023-01-19T15:02:47.286Z,10.03
2023-01-19T15:05:14.423Z,12.37
2023-01-19T15:07:43.500Z,10.33
2023-01-19T15:10:21.122Z,10.00
2023-01-19T15:12:49.002Z,9.77
2023-01-19T15:15:25.643Z,9.23
2023-01-19T15:17:54.187Z,7.83
2023-01-19T15:20:23.005Z,7.60
2023-01-19T15:22:49.919Z,8.00
2023-01-19T15:25:21.037Z,9.87
2023-01-19T15:27:48.443Z,14.73
2023-01-19T15:30:27.704Z,10.73
2023-01-19T15:32:54.025Z,11.00
2023-01-19T15:35:22.963Z,11.20
2023-01-19T15:37:50.397Z,8.53
2023-01-19T15:40:18.284Z,6.60
2023-01-19T15:42:45.240Z,7.17
2023-01-19T15:45:36.187Z,14.93
2023-01-19T15:48:08.088Z,6.47
2023-01-19T15:50:39.519Z,13.03
2023-01-19T15:53:07.123Z,11.17
2023-01-19T15:55:33.468Z,10.43
2023-01-19T15:58:02.494Z,13.07
2023-01-19T16:00:31.598Z,9.70
2023-01-19T16:02:58.905Z,7.90
2023-01-19T16:05:37.430Z,8.83
2023-01-19T16:08:08.638Z,7.70
2023-01-19T16:10:35.254Z,8.97
2023-01-19T16:13:01.595Z,12.03
2023-01-19T16:15:27.959Z,10.83
2023-01-19T16:17:54.282Z,10.37
2023-01-19T16:20:20.600Z,7.90
2023-01-19T16:22:46.946Z,7.00
2023-01-19T16:25:13.308Z,7.00
2023-01-19T16:27:39.678Z,8.70
2023-01-19T16:30:06.699Z,8.30
2023-01-19T16:32:33.779Z,11.47
2023-01-19T16:35:00.118Z,12.73
2023-01-19T16:37:28.044Z,13.93
2023-01-19T16:39:54.510Z,10.23
2023-01-19T16:42:20.938Z,8.23
2023-01-19T16:45:05.388Z,7.73
2023-01-19T16:47:31.732Z,15.57
2023-01-19T16:49:58.036Z,8.37
2023-01-19T16:52:24.382Z,11.43
2023-01-19T16:54:54.487Z,10.63
2023-01-19T16:57:20.816Z,10.70
2023-01-19T16:59:47.256Z,10.80
2023-01-19T17:02:13.732Z,11.17
2023-01-19T17:04:40.088Z,10.20
2023-01-19T17:07:06.423Z,19.00
2023-01-19T17:09:33.919Z,12.57
2023-01-19T17:12:00.266Z,8.87
2023-01-19T17:14:26.728Z,9.47
2023-01-19T17:16:53.053Z,17.43
2023-01-19T17:19:22.127Z,12.63
2023-01-19T17:21:49.885Z,9.47
2023-01-19T17:24:17.015Z,9.10
2023-01-19T17:26:45.791Z,10.40
2023-01-19T17:29:12.214Z,10.00
2023-01-19T17:31:38.829Z,8.37
2023-01-19T17:34:05.634Z,12.60
2023-01-19T17:36:32.851Z,9.80
2023-01-19T17:39:01.008Z,14.40
2023-01-19T17:41:30.596Z,15.77
2023-01-19T17:43:57.987Z,9.67
2023-01-19T17:46:26.649Z,10.30
2023-01-19T17:48:54.561Z,12.53
2023-01-19T17:51:22.918Z,14.73
2023-01-19T17:53:50.244Z,14.03
2023-01-19T17:56:18.772Z,20.17
2023-01-19T17:58:45.127Z,16.83
2023-01-19T18:01:14.934Z,17.60
2023-01-19T18:03:42.283Z,11.33
2023-01-19T18:06:09.312Z,12.07
2023-01-19T18:08:41.952Z,10.40
2023-01-19T18:11:09.417Z,16.97
2023-01-19T18:13:37.208Z,16.87
2023-01-19T18:16:09.701Z,16.30
2023-01-19T18:18:37.128Z,13.60
2023-01-19T18:21:06.657Z,14.10
2023-01-19T18:23:33.479Z,17.93
2023-01-19T18:26:05.907Z,21.10
2023-01-19T18:28:32.599Z,17.63
2023-01-19T18:30:59.739Z,11.90
2023-01-19T18:33:27.529Z,16.63
2023-01-19T18:35:54.452Z,17.47
2023-01-19T18:38:20.899Z,15.00
2023-01-19T18:40:47.245Z,14.57
2023-01-19T18:43:13.675Z,20.20
2023-01-19T18:45:44.271Z,30.27
2023-01-19T18:48:10.590Z,19.07
2023-01-19T18:50:37.607Z,13.57
2023-01-19T18:53:03.942Z,17.00
2023-01-19T18:55:30.477Z,16.10
2023-01-19T18:57:56.799Z,17.20
2023-01-19T19:00:23.239Z,15.10
2023-01-19T19:02:49.576Z,12.97
2023-01-19T19:05:15.983Z,18.00
2023-01-19T19:07:42.311Z,13.67
2023-01-19T19:10:09.528Z,17.13
2023-01-19T19:12:35.847Z,20.53
2023-01-19T19:15:02.235Z,17.50
2023-01-19T19:17:28.576Z,16.00
2023-01-19T19:19:54.911Z,16.90
2023-01-19T19:22:21.303Z,14.77
2023-01-19T19:24:47.625Z,13.97
2023-01-19T19:27:14.310Z,17.30
2023-01-19T19:29:41.356Z,13.20
2023-01-19T19:32:07.713Z,14.10
2023-01-19T19:34:34.087Z,14.17
2023-01-19T19:37:01.371Z,12.70
2023-01-19T19:39:28.396Z,13.53
2023-01-19T19:41:54.723Z,11.40
2023-01-19T19:44:21.164Z,16.40
2023-01-19T19:46:47.721Z,13.03
2023-01-19T19:49:15.289Z,14.23
2023-01-19T19:51:41.872Z,17.87
2023-01-19T19:54:08.835Z,14.70
2023-01-19T19:56:35.201Z,54.20
2023-01-19T19:59:01.559Z,153.70
2023-01-19T20:01:32.898Z,103.13
2023-01-19T20:04:07.793Z,85.47
2023-01-19T20:06:38.611Z,50.17
2023-01-19T20:09:06.529Z,38.50
2023-01-19T20:11:33.323Z,19.43
2023-01-19T20:13:59.835Z,17.07
2023-01-19T20:16:26.410Z,21.13
2023-01-19T20:18:54.208Z,20.83
2023-01-19T20:21:26.909Z,36.43
2023-01-19T20:23:55.097Z,22.40
2023-01-19T20:26:25.108Z,14.23
2023-01-19T20:28:51.944Z,20.00
2023-01-19T20:31:21.479Z,23.73
2023-01-19T20:33:49.795Z,18.67
2023-01-19T20:36:17.012Z,15.83
2023-01-19T20:38:43.720Z,14.80
2023-01-19T20:41:11.695Z,19.13
2023-01-19T20:43:38.543Z,17.73
2023-01-19T20:46:05.560Z,16.53
2023-01-19T20:48:32.197Z,15.73
2023-01-19T20:51:04.371Z,17.63
2023-01-19T20:53:31.542Z,15.03
2023-01-19T20:55:57.979Z,14.23
2023-01-19T20:58:24.424Z,19.60
2023-01-19T21:00:50.928Z,13.63
2023-01-19T21:03:17.471Z,15.90
2023-01-19T21:05:46.571Z,21.80
2023-01-19T21:08:14.653Z,14.30
2023-01-19T21:10:41.700Z,14.70
2023-01-19T21:13:08.192Z,14.40
2023-01-19T21:15:34.745Z,12.93
2023-01-19T21:18:01.759Z,15.33
2023-01-19T21:20:32.861Z,17.23
2023-01-19T21:22:59.243Z,20.73
2023-01-19T21:25:25.564Z,15.23
2023-01-19T21:27:51.872Z,15.60
2023-01-19T21:30:18.502Z,16.33
2023-01-19T21:32:44.914Z,15.07
2023-01-19T21:35:11.517Z,16.00
2023-01-19T21:37:38.064Z,17.40
2023-01-19T21:40:05.012Z,16.60
2023-01-19T21:42:31.394Z,14.50
2023-01-19T21:44:57.780Z,13.40
2023-01-19T21:47:24.125Z,18.47
2023-01-19T21:49:50.439Z,19.93
2023-01-19T21:52:16.807Z,22.50
2023-01-19T21:54:43.335Z,13.73
2023-01-19T21:57:09.751Z,15.80
2023-01-19T21:59:36.087Z,16.03
2023-01-19T22:02:02.574Z,23.40
2023-01-19T22:04:29.694Z,15.70
2023-01-19T22:06:56.026Z,12.43
2023-01-19T22:09:22.420Z,18.67
2023-01-19T22:11:48.742Z,13.47
2023-01-19T22:14:15.077Z,16.90
2023-01-19T22:16:41.471Z,20.10
2023-01-19T22:19:12.799Z,14.30
2023-01-19T22:21:39.871Z,22.20
2023-01-19T22:24:06.721Z,15.40
2023-01-19T22:26:34.085Z,16.43
2023-01-19T22:29:01.585Z,19.93
2023-01-19T22:31:29.377Z,20.23
2023-01-19T22:33:56.627Z,16.67
2023-01-19T22:36:25.695Z,14.87
2023-01-19T22:38:54.463Z,16.27
2023-01-19T22:41:23.543Z,16.83
2023-01-19T22:43:52.625Z,16.97
2023-01-19T22:46:20.568Z,16.47
2023-01-19T22:48:48.300Z,16.87
2023-01-19T22:51:15.047Z,18.97
2023-01-19T22:53:41.394Z,21.30
2023-01-19T22:56:32.329Z,20.63
2023-01-19T22:58:59.471Z,15.40
2023-01-19T23:01:37.615Z,17.80
2023-01-19T23:04:05.324Z,15.87
2023-01-19T23:06:34.420Z,16.73
2023-01-19T23:09:04.780Z,17.47
2023-01-19T23:11:39.729Z,18.07
2023-01-19T23:14:07.911Z,17.83
2023-01-19T23:16:34.782Z,17.93
2023-01-19T23:19:01.365Z,15.93
2023-01-19T23:21:30.340Z,16.00
2023-01-19T23:24:02.108Z,15.50
2023-01-19T23:26:30.671Z,18.07
2023-01-19T23:28:59.370Z,19.00
2023-01-19T23:31:28.340Z,18.40
2023-01-19T23:33:57.326Z,16.53
2023-01-19T23:36:25.990Z,21.90
2023-01-19T23:38:54.474Z,15.57
2023-01-19T23:41:21.659Z,15.90
2023-01-19T23:43:48.503Z,18.50
2023-01-19T23:46:16.544Z,21.67
2023-01-19T23:48:43.377Z,17.70
2023-01-19T23:51:12.391Z,16.30
2023-01-19T23:53:38.809Z,16.37
2023-01-19T23:56:32.699Z,20.67
2023-01-19T23:59:11.582Z,17.93
